Time;durP1;ratioP1;P1;durP2;ratioP2;P2;SDS_P1;SDS_P2;PMS_P1;PMS_P2;Temp;Humidity;BMP_temperature;BMP_pressure;BME280_temperature;BME280_humidity;BME280_pressure;Samples;Min_cycle;Max_cycle;Signal;HPM_P1;HPM_P2
2022/04/21 00:00:41;;;;;;;6.88;5.57;;;;;;;;;;5038443;28;20032;-72
2022/04/21 00:03:07;;;;;;;8.60;6.38;;;;;;;;;;5013422;28;20026;-72
2022/04/21 00:05:34;;;;;;;9.48;6.03;;;;;;;;;;5041631;28;20048;-72
2022/04/21 00:08:00;;;;;;;6.57;4.97;;;;;;;;;;5047951;28;20018;-73
2022/04/21 00:10:26;;;;;;;7.60;6.05;;;;;;;;;;5039610;28;20074;-73
2022/04/21 00:12:54;;;;;;;6.65;5.55;;;;;;;;;;5033986;28;20087;-73
2022/04/21 00:15:21;;;;;;;9.45;5.72;;;;;;;;;;5038765;28;20127;-71
2022/04/21 00:17:47;;;;;;;7.07;5.68;;;;;;;;;;5029239;28;20020;-73
2022/04/21 00:20:13;;;;;;;7.78;5.78;;;;;;;;;;5028384;28;20045;-73
2022/04/21 00:25:26;;;;;;;6.45;5.57;;;;;;;;;;5052469;28;20074;-73
2022/04/21 00:27:53;;;;;;;8.20;5.65;;;;;;;;;;5029071;28;20013;-72
2022/04/21 00:30:19;;;;;;;9.35;6.45;;;;;;;;;;5042668;28;20594;-72
2022/04/21 00:32:46;;;;;;;10.07;6.90;;;;;;;;;;5044543;28;20021;-71
2022/04/21 00:35:13;;;;;;;10.38;7.13;;;;;;;;;;5028083;28;20029;-71
2022/04/21 00:37:45;;;;;;;11.77;7.30;;;;;;;;;;5052788;28;20057;-71
2022/04/21 00:40:11;;;;;;;8.65;6.30;;;;;;;;;;5059822;22;20052;-75
2022/04/21 00:42:37;;;;;;;10.38;7.63;;;;;;;;;;5054250;28;20037;-76
2022/04/21 00:45:03;;;;;;;11.23;8.52;;;;;;;;;;5038336;28;20063;-76
2022/04/21 00:47:30;;;;;;;9.57;7.47;;;;;;;;;;5049742;28;20063;-77
2022/04/21 00:49:56;;;;;;;8.60;7.07;;;;;;;;;;5040538;28;20017;-76
2022/04/21 00:52:22;;;;;;;8.43;7.18;;;;;;;;;;5045838;28;20372;-78
2022/04/21 00:54:48;;;;;;;10.70;7.65;;;;;;;;;;5054284;28;20102;-77
2022/04/21 00:57:14;;;;;;;9.60;6.90;;;;;;;;;;5039608;28;20022;-76
2022/04/21 00:59:40;;;;;;;8.80;6.88;;;;;;;;;;5051713;28;20053;-76
2022/04/21 01:04:51;;;;;;;8.88;7.43;;;;;;;;;;5047484;28;20461;-77
2022/04/21 01:07:17;;;;;;;11.35;8.27;;;;;;;;;;5036763;28;20386;-76
2022/04/21 01:09:43;;;;;;;9.15;8.05;;;;;;;;;;5050595;28;20076;-77
2022/04/21 01:12:10;;;;;;;9.82;8.23;;;;;;;;;;5041471;28;20028;-75
2022/04/21 01:14:37;;;;;;;11.10;8.65;;;;;;;;;;5042443;28;20017;-75
2022/04/21 01:17:03;;;;;;;10.70;8.60;;;;;;;;;;5047957;28;20307;-74
2022/04/21 01:19:29;;;;;;;11.23;8.73;;;;;;;;;;5047898;28;20034;-78
2022/04/21 01:21:55;;;;;;;10.23;9.00;;;;;;;;;;5055988;28;20030;-76
2022/04/21 01:24:21;;;;;;;14.02;9.50;;;;;;;;;;5045318;28;20174;-76
2022/04/21 01:26:48;;;;;;;10.68;8.75;;;;;;;;;;5041949;28;20047;-74
2022/04/21 01:29:14;;;;;;;12.75;8.57;;;;;;;;;;5048517;28;20521;-75
2022/04/21 01:31:40;;;;;;;13.32;9.75;;;;;;;;;;5038095;28;20027;-75
2022/04/21 01:34:06;;;;;;;11.90;9.15;;;;;;;;;;5056454;28;20104;-75
2022/04/21 01:36:32;;;;;;;11.07;9.13;;;;;;;;;;5044846;28;20018;-76
2022/04/21 01:41:42;;;;;;;12.00;9.23;;;;;;;;;;5037616;28;20079;-75
2022/04/21 01:44:08;;;;;;;15.93;9.85;;;;;;;;;;5044817;28;20014;-75
2022/04/21 01:46:34;;;;;;;13.15;9.98;;;;;;;;;;5044372;28;20367;-75
2022/04/21 01:49:00;;;;;;;13.60;8.82;;;;;;;;;;5038117;28;20383;-75
2022/04/21 01:51:26;;;;;;;12.07;9.50;;;;;;;;;;5048443;28;20123;-75
2022/04/21 01:53:52;;;;;;;15.50;10.70;;;;;;;;;;5038381;28;20021;-75
2022/04/21 01:56:18;;;;;;;12.02;9.73;;;;;;;;;;5044831;28;20022;-74
2022/04/21 01:58:45;;;;;;;13.02;10.30;;;;;;;;;;5044958;28;20040;-74
2022/04/21 02:01:11;;;;;;;16.27;10.43;;;;;;;;;;5036611;28;20495;-74
2022/04/21 02:03:37;;;;;;;12.27;9.52;;;;;;;;;;5050365;28;20175;-74
2022/04/21 02:06:03;;;;;;;14.48;10.65;;;;;;;;;;5045322;28;20272;-74
2022/04/21 02:08:29;;;;;;;14.07;10.45;;;;;;;;;;5040948;28;20472;-73
2022/04/21 02:10:55;;;;;;;11.35;10.15;;;;;;;;;;5039216;28;20026;-74
2022/04/21 02:13:20;;;;;;;13.57;10.93;;;;;;;;;;5049127;28;20044;-74
2022/04/21 02:15:47;;;;;;;12.43;10.00;;;;;;;;;;5037467;28;20104;-74
2022/04/21 02:18:14;;;;;;;11.38;9.77;;;;;;;;;;5044265;28;20454;-77
2022/04/21 02:20:39;;;;;;;17.40;11.13;;;;;;;;;;5044196;28;20048;-77
2022/04/21 02:23:06;;;;;;;13.98;10.43;;;;;;;;;;5037605;28;20112;-77
2022/04/21 02:25:32;;;;;;;15.70;11.18;;;;;;;;;;5049111;28;20032;-76
2022/04/21 02:27:58;;;;;;;14.05;10.52;;;;;;;;;;5037326;28;20013;-77
2022/04/21 02:30:23;;;;;;;14.77;11.10;;;;;;;;;;5041914;28;20045;-77
2022/04/21 02:32:49;;;;;;;16.67;12.15;;;;;;;;;;5043949;28;20375;-77
2022/04/21 02:35:16;;;;;;;14.52;10.68;;;;;;;;;;5052404;28;20103;-77
2022/04/21 02:37:43;;;;;;;12.70;9.93;;;;;;;;;;5035501;28;20022;-76
2022/04/21 02:40:10;;;;;;;15.77;11.30;;;;;;;;;;5045048;28;20021;-77
2022/04/21 02:42:38;;;;;;;15.43;11.00;;;;;;;;;;5042617;28;20491;-77
2022/04/21 02:45:05;;;;;;;14.07;10.27;;;;;;;;;;5038480;28;20033;-78
2022/04/21 02:47:31;;;;;;;17.98;11.48;;;;;;;;;;5050975;28;20107;-78
2022/04/21 02:49:57;;;;;;;17.02;10.23;;;;;;;;;;5042000;28;20575;-78
2022/04/21 02:52:23;;;;;;;13.75;10.73;;;;;;;;;;5044526;28;20043;-78
2022/04/21 02:57:34;;;;;;;13.75;10.95;;;;;;;;;;5034773;28;20037;-75
2022/04/21 03:00:01;;;;;;;18.85;10.90;;;;;;;;;;5045655;28;20087;-75
2022/04/21 03:02:28;;;;;;;13.63;10.30;;;;;;;;;;5037019;28;20021;-75
2022/04/21 03:04:54;;;;;;;19.33;11.07;;;;;;;;;;5045595;28;20383;-75
2022/04/21 03:07:20;;;;;;;19.40;12.82;;;;;;;;;;5033169;28;20108;-76
2022/04/21 03:09:46;;;;;;;19.02;13.30;;;;;;;;;;5048144;28;20043;-75
2022/04/21 03:12:13;;;;;;;15.60;11.50;;;;;;;;;;5039925;28;20025;-74
2022/04/21 03:14:40;;;;;;;21.40;12.90;;;;;;;;;;5039182;28;20087;-74
2022/04/21 03:17:06;;;;;;;18.65;13.45;;;;;;;;;;5046040;28;20628;-73
2022/04/21 03:19:32;;;;;;;18.50;13.30;;;;;;;;;;5033658;28;20117;-73
2022/04/21 03:24:44;;;;;;;26.50;15.70;;;;;;;;;;5044302;28;20036;-73
2022/04/21 03:27:10;;;;;;;23.02;15.40;;;;;;;;;;5033615;28;20044;-73
2022/04/21 03:29:37;;;;;;;23.73;17.08;;;;;;;;;;5048258;28;20569;-74
2022/04/21 03:32:09;;;;;;;25.92;16.38;;;;;;;;;;5037958;28;20017;-74
2022/04/21 03:34:35;;;;;;;25.33;16.42;;;;;;;;;;5039445;28;20029;-75
2022/04/21 03:37:02;;;;;;;20.90;15.98;;;;;;;;;;5044351;28;20079;-75
2022/04/21 03:39:28;;;;;;;26.73;17.30;;;;;;;;;;5047106;28;20052;-75
2022/04/21 03:41:53;;;;;;;27.40;17.30;;;;;;;;;;5036662;28;20072;-75
2022/04/21 03:44:23;;;;;;;30.65;19.13;;;;;;;;;;5051412;28;20146;-75
2022/04/21 03:46:49;;;;;;;32.67;19.42;;;;;;;;;;5036936;28;20463;-74
2022/04/21 03:49:15;;;;;;;28.02;18.52;;;;;;;;;;5047093;28;20440;-74
2022/04/21 03:51:41;;;;;;;29.27;17.30;;;;;;;;;;5034960;28;20379;-75
2022/04/21 03:54:07;;;;;;;30.20;18.02;;;;;;;;;;5043942;28;20026;-75
2022/04/21 03:56:33;;;;;;;38.28;18.75;;;;;;;;;;5042377;28;20040;-77
2022/04/21 03:58:59;;;;;;;37.85;19.08;;;;;;;;;;5036575;28;20512;-76
2022/04/21 04:01:25;;;;;;;43.65;21.77;;;;;;;;;;5047350;28;20114;-77
2022/04/21 04:03:51;;;;;;;46.88;23.35;;;;;;;;;;5044818;28;20083;-77
2022/04/21 04:12:08;;;;;;;50.92;25.33;;;;;;;;;;5009436;28;20080;-75
2022/04/21 04:14:33;;;;;;;44.92;25.10;;;;;;;;;;5032892;28;20036;-76
2022/04/21 04:16:59;;;;;;;42.88;24.58;;;;;;;;;;5034757;28;20384;-76
2022/04/21 04:19:25;;;;;;;53.00;26.35;;;;;;;;;;5047306;28;20036;-76
2022/04/21 04:21:51;;;;;;;44.80;26.58;;;;;;;;;;5038804;28;20017;-77
2022/04/21 04:24:18;;;;;;;50.38;24.63;;;;;;;;;;5042514;28;20368;-77
2022/04/21 04:26:43;;;;;;;50.92;26.15;;;;;;;;;;5043614;28;20447;-77
2022/04/21 04:29:09;;;;;;;52.67;27.50;;;;;;;;;;5034729;28;20025;-76
2022/04/21 04:31:36;;;;;;;50.60;26.67;;;;;;;;;;5047105;28;20369;-76
2022/04/21 04:34:02;;;;;;;53.83;27.00;;;;;;;;;;5037329;28;20355;-76
2022/04/21 04:36:28;;;;;;;49.95;26.38;;;;;;;;;;5041145;28;20025;-75
2022/04/21 04:38:54;;;;;;;51.70;25.77;;;;;;;;;;5050778;28;20024;-75
2022/04/21 04:44:05;;;;;;;47.83;24.52;;;;;;;;;;5050569;28;20032;-76
2022/04/21 04:46:37;;;;;;;47.40;24.73;;;;;;;;;;5039255;28;20189;-77
2022/04/21 04:49:10;;;;;;;43.38;26.08;;;;;;;;;;5045752;28;20025;-77
2022/04/21 04:51:39;;;;;;;41.03;25.20;;;;;;;;;;5038480;28;20086;-77
2022/04/21 04:54:08;;;;;;;51.88;26.10;;;;;;;;;;5049209;28;20017;-77
2022/04/21 04:56:34;;;;;;;54.90;27.35;;;;;;;;;;5050631;28;20033;-77
2022/04/21 04:59:01;;;;;;;46.10;25.30;;;;;;;;;;5040695;28;20030;-77
2022/04/21 05:01:29;;;;;;;47.95;22.67;;;;;;;;;;5052024;28;20033;-75
2022/04/21 05:04:06;;;;;;;49.33;22.92;;;;;;;;;;5049977;28;20024;-75
2022/04/21 05:06:39;;;;;;;51.75;23.50;;;;;;;;;;5046627;28;20086;-76
2022/04/21 05:09:06;;;;;;;47.10;23.58;;;;;;;;;;5052768;28;20021;-77
2022/04/21 05:11:33;;;;;;;50.47;22.45;;;;;;;;;;5037964;28;20056;-76
2022/04/21 05:13:59;;;;;;;59.63;24.38;;;;;;;;;;5047273;28;20029;-74
2022/04/21 05:16:25;;;;;;;47.85;24.58;;;;;;;;;;5044602;28;20025;-73
2022/04/21 05:18:51;;;;;;;52.10;23.73;;;;;;;;;;5037528;28;20501;-75
2022/04/21 05:21:17;;;;;;;52.85;24.05;;;;;;;;;;5047447;28;20033;-75
2022/04/21 05:23:46;;;;;;;59.65;24.67;;;;;;;;;;5049875;28;20029;-76
2022/04/21 05:26:12;;;;;;;56.67;26.40;;;;;;;;;;5041964;28;20105;-76
2022/04/21 05:28:38;;;;;;;53.95;28.13;;;;;;;;;;5042384;28;20024;-75
2022/04/21 05:31:04;;;;;;;60.92;26.38;;;;;;;;;;5049527;28;20025;-76
2022/04/21 05:33:30;;;;;;;60.53;26.73;;;;;;;;;;5037254;28;20092;-75
2022/04/21 05:35:57;;;;;;;55.65;25.75;;;;;;;;;;5048054;28;20049;-75
2022/04/21 05:38:23;;;;;;;56.88;26.35;;;;;;;;;;5042612;28;20025;-75
2022/04/21 05:40:50;;;;;;;57.95;25.27;;;;;;;;;;5040530;28;20033;-76
2022/04/21 05:43:20;;;;;;;47.92;23.27;;;;;;;;;;5049909;28;20036;-75
2022/04/21 05:45:47;;;;;;;53.58;23.60;;;;;;;;;;5048131;28;20082;-77
2022/04/21 05:48:14;;;;;;;47.33;24.45;;;;;;;;;;5039492;28;20390;-76
2022/04/21 05:50:40;;;;;;;52.25;22.70;;;;;;;;;;5053115;28;20032;-75
2022/04/21 05:53:07;;;;;;;42.33;22.17;;;;;;;;;;5037995;28;20040;-75
2022/04/21 05:55:35;;;;;;;43.80;21.30;;;;;;;;;;5050062;28;20036;-74
2022/04/21 05:58:01;;;;;;;45.72;21.17;;;;;;;;;;5038827;28;20158;-77
2022/04/21 06:00:27;;;;;;;46.05;20.45;;;;;;;;;;5043404;28;20491;-75
2022/04/21 06:02:53;;;;;;;44.38;21.35;;;;;;;;;;5041108;28;20116;-75
2022/04/21 06:05:19;;;;;;;41.13;19.77;;;;;;;;;;5048005;28;20064;-74
2022/04/21 06:07:45;;;;;;;41.55;19.13;;;;;;;;;;5036437;28;20119;-74
2022/04/21 06:10:11;;;;;;;48.17;18.88;;;;;;;;;;5045219;28;20083;-76
2022/04/21 06:12:38;;;;;;;45.22;20.02;;;;;;;;;;5044019;28;20449;-75
2022/04/21 06:15:04;;;;;;;35.80;19.73;;;;;;;;;;5037485;28;20060;-75
2022/04/21 06:17:30;;;;;;;40.80;21.35;;;;;;;;;;5048188;28;20037;-75
2022/04/21 06:19:56;;;;;;;43.95;19.83;;;;;;;;;;5038085;28;20037;-75
2022/04/21 06:22:22;;;;;;;39.20;20.38;;;;;;;;;;5043740;28;20053;-74
2022/04/21 06:24:48;;;;;;;43.78;19.00;;;;;;;;;;5045506;28;20391;-76
2022/04/21 06:27:14;;;;;;;34.67;19.33;;;;;;;;;;5035568;28;20095;-75
2022/04/21 06:29:40;;;;;;;41.20;21.17;;;;;;;;;;5052351;28;20013;-74
2022/04/21 06:32:06;;;;;;;32.50;18.90;;;;;;;;;;5044289;28;20018;-76
2022/04/21 06:34:32;;;;;;;35.75;19.08;;;;;;;;;;5043024;28;20036;-76
2022/04/21 06:37:00;;;;;;;40.80;19.58;;;;;;;;;;5039154;28;20399;-72
2022/04/21 06:39:25;;;;;;;36.55;18.13;;;;;;;;;;5036790;28;20034;-73
2022/04/21 06:41:51;;;;;;;30.70;16.67;;;;;;;;;;5071593;22;20048;-73
2022/04/21 06:49:47;;;;;;;30.65;16.95;;;;;;;;;;5050767;28;20032;-70
2022/04/21 06:52:13;;;;;;;31.20;17.80;;;;;;;;;;5024248;28;20017;-74
2022/04/21 06:54:39;;;;;;;27.65;17.75;;;;;;;;;;5036663;28;20025;-72
2022/04/21 06:57:05;;;;;;;37.58;18.73;;;;;;;;;;5040653;28;20045;-72
2022/04/21 06:59:31;;;;;;;32.78;18.27;;;;;;;;;;5033179;28;20017;-71
2022/04/21 07:01:57;;;;;;;42.72;23.60;;;;;;;;;;5033348;28;20029;-72
2022/04/21 07:04:22;;;;;;;35.45;20.80;;;;;;;;;;5014039;28;20042;-70
2022/04/21 07:06:48;;;;;;;27.20;17.10;;;;;;;;;;5023302;28;20157;-73
2022/04/21 07:09:15;;;;;;;32.90;17.02;;;;;;;;;;5023281;28;20049;-72
2022/04/21 07:11:43;;;;;;;28.70;18.15;;;;;;;;;;5021718;28;20030;-72
2022/04/21 07:14:10;;;;;;;26.67;15.80;;;;;;;;;;5015257;28;20041;-73
2022/04/21 07:16:36;;;;;;;24.83;15.70;;;;;;;;;;5015060;28;20025;-72
2022/04/21 07:19:02;;;;;;;23.08;14.55;;;;;;;;;;5015766;28;20032;-71
2022/04/21 07:21:28;;;;;;;20.45;14.10;;;;;;;;;;5016054;28;20033;-73
2022/04/21 07:23:54;;;;;;;23.40;13.32;;;;;;;;;;5016809;28;20018;-71
2022/04/21 07:26:20;;;;;;;19.50;12.43;;;;;;;;;;5018996;28;20109;-73
2022/04/21 07:28:46;;;;;;;18.48;12.93;;;;;;;;;;5018580;28;20057;-73
2022/04/21 07:31:12;;;;;;;19.80;13.23;;;;;;;;;;5020250;28;20018;-73
2022/04/21 07:33:38;;;;;;;19.52;13.60;;;;;;;;;;5018348;28;20037;-73
2022/04/21 07:36:04;;;;;;;18.85;13.30;;;;;;;;;;5019034;28;20029;-73
2022/04/21 07:38:31;;;;;;;20.33;14.05;;;;;;;;;;5017628;28;20053;-73
2022/04/21 07:40:57;;;;;;;18.60;13.40;;;;;;;;;;5018475;28;20061;-72
2022/04/21 07:43:23;;;;;;;18.48;14.20;;;;;;;;;;5019140;28;20025;-73
2022/04/21 07:45:49;;;;;;;17.95;13.27;;;;;;;;;;5017511;28;20025;-73
2022/04/21 07:48:15;;;;;;;19.60;13.65;;;;;;;;;;5018007;28;20036;-73
2022/04/21 07:50:42;;;;;;;18.23;12.75;;;;;;;;;;5018496;28;20026;-73
2022/04/21 07:53:14;;;;;;;17.50;13.27;;;;;;;;;;5019244;28;20048;-72
2022/04/21 07:55:40;;;;;;;20.75;12.15;;;;;;;;;;5016356;28;20045;-72
2022/04/21 07:58:07;;;;;;;18.90;12.55;;;;;;;;;;5017209;28;20030;-72
2022/04/21 08:00:36;;;;;;;22.30;11.82;;;;;;;;;;5017824;28;20030;-73
2022/04/21 08:03:03;;;;;;;15.48;12.10;;;;;;;;;;5018080;28;20021;-71
2022/04/21 08:05:29;;;;;;;17.15;12.00;;;;;;;;;;5018045;28;20026;-72
2022/04/21 08:07:54;;;;;;;17.83;11.10;;;;;;;;;;5017063;28;20097;-72
2022/04/21 08:10:21;;;;;;;17.15;11.40;;;;;;;;;;5017310;28;20109;-73
2022/04/21 08:12:47;;;;;;;15.93;12.00;;;;;;;;;;5017995;28;20062;-73
2022/04/21 08:15:15;;;;;;;18.05;11.30;;;;;;;;;;5018880;28;20037;-72
2022/04/21 08:17:41;;;;;;;13.00;10.38;;;;;;;;;;5016321;28;20034;-73
2022/04/21 08:20:08;;;;;;;13.88;10.88;;;;;;;;;;5018970;28;20114;-72
2022/04/21 08:22:34;;;;;;;15.48;10.38;;;;;;;;;;5017749;28;20086;-72
2022/04/21 08:33:18;;;;;;;12.75;10.20;;;;;;;;;;5021890;28;20072;-73
2022/04/21 08:35:44;;;;;;;12.90;10.63;;;;;;;;;;5020684;28;20029;-72
2022/04/21 08:38:11;;;;;;;14.32;10.90;;;;;;;;;;5021149;28;20030;-72
2022/04/21 08:40:37;;;;;;;16.30;12.07;;;;;;;;;;5021937;28;20026;-72
2022/04/21 08:43:13;;;;;;;13.90;11.80;;;;;;;;;;5021007;28;20403;-73
2022/04/21 08:45:41;;;;;;;16.38;13.38;;;;;;;;;;5022198;28;20022;-72
2022/04/21 08:48:07;;;;;;;15.68;12.30;;;;;;;;;;5020220;28;20033;-72
2022/04/21 08:50:33;;;;;;;22.38;15.35;;;;;;;;;;5021639;28;20022;-72
2022/04/21 08:53:00;;;;;;;16.60;13.20;;;;;;;;;;5021707;28;20036;-72
2022/04/21 08:55:26;;;;;;;18.08;13.15;;;;;;;;;;5020954;28;20484;-70
2022/04/21 08:57:53;;;;;;;20.80;14.55;;;;;;;;;;5021642;28;20032;-72
2022/04/21 09:00:20;;;;;;;18.60;14.73;;;;;;;;;;5020154;28;20440;-72
2022/04/21 09:02:47;;;;;;;17.67;14.30;;;;;;;;;;5020502;28;20026;-71
2022/04/21 09:05:13;;;;;;;22.08;15.38;;;;;;;;;;5021184;28;20045;-71
2022/04/21 09:07:46;;;;;;;21.05;14.93;;;;;;;;;;5019328;28;20029;-71
2022/04/21 09:10:13;;;;;;;19.10;15.18;;;;;;;;;;5019645;28;20061;-72
2022/04/21 09:12:43;;;;;;;17.35;13.35;;;;;;;;;;5020878;28;20033;-72
2022/04/21 09:15:16;;;;;;;17.60;15.07;;;;;;;;;;5020581;28;20038;-72
2022/04/21 09:17:47;;;;;;;17.50;14.20;;;;;;;;;;5019410;28;20033;-72
2022/04/21 09:20:14;;;;;;;16.33;14.53;;;;;;;;;;5020749;28;20070;-72
2022/04/21 09:22:41;;;;;;;17.20;14.10;;;;;;;;;;5018565;28;20029;-71
2022/04/21 09:25:08;;;;;;;16.13;13.13;;;;;;;;;;5020684;28;20172;-72
2022/04/21 09:27:41;;;;;;;19.48;15.23;;;;;;;;;;5020792;28;20080;-72
2022/04/21 09:30:12;;;;;;;22.50;15.02;;;;;;;;;;5025391;28;20033;-72
2022/04/21 09:32:39;;;;;;;19.98;15.80;;;;;;;;;;5025178;28;20033;-72
2022/04/21 09:35:06;;;;;;;20.27;15.85;;;;;;;;;;5024103;28;20057;-72
2022/04/21 09:37:33;;;;;;;21.00;16.45;;;;;;;;;;5022707;28;20026;-71
2022/04/21 09:40:01;;;;;;;19.85;14.48;;;;;;;;;;5024572;28;20040;-72
2022/04/21 09:42:28;;;;;;;18.35;14.73;;;;;;;;;;5021112;28;20030;-72
2022/04/21 09:47:49;;;;;;;18.33;13.45;;;;;;;;;;5026122;28;20037;-73
2022/04/21 09:50:15;;;;;;;17.38;13.40;;;;;;;;;;5023992;28;20029;-72
2022/04/21 09:52:51;;;;;;;24.80;16.33;;;;;;;;;;5024531;28;20033;-72
2022/04/21 09:55:27;;;;;;;16.20;12.55;;;;;;;;;;5023598;28;20044;-71
2022/04/21 09:58:04;;;;;;;15.63;13.48;;;;;;;;;;5020676;28;20033;-71
2022/04/21 10:00:30;;;;;;;15.68;13.30;;;;;;;;;;5019902;28;20018;-73
2022/04/21 10:02:57;;;;;;;15.73;12.93;;;;;;;;;;5018418;28;20030;-72
2022/04/21 10:05:24;;;;;;;16.02;11.48;;;;;;;;;;5019878;28;20022;-72
2022/04/21 10:07:50;;;;;;;14.38;12.52;;;;;;;;;;5018848;28;20029;-72
2022/04/21 10:10:17;;;;;;;16.10;12.63;;;;;;;;;;5019314;28;20487;-73
2022/04/21 10:12:43;;;;;;;15.38;13.15;;;;;;;;;;5020023;28;20030;-72
2022/04/21 10:15:10;;;;;;;13.57;11.10;;;;;;;;;;5018906;28;20100;-73
2022/04/21 10:17:36;;;;;;;14.68;12.48;;;;;;;;;;5019112;28;20030;-73
2022/04/21 10:20:02;;;;;;;13.77;11.98;;;;;;;;;;5020065;28;20026;-72
2022/04/21 10:22:28;;;;;;;14.88;12.57;;;;;;;;;;5018934;28;20037;-73
2022/04/21 10:24:56;;;;;;;16.70;13.45;;;;;;;;;;5017688;28;20029;-73
2022/04/21 10:27:49;;;;;;;16.60;12.60;;;;;;;;;;5018620;28;20370;-70
2022/04/21 10:30:19;;;;;;;16.02;12.77;;;;;;;;;;5018864;28;20025;-70
2022/04/21 10:32:55;;;;;;;17.27;12.60;;;;;;;;;;5019499;28;20030;-73
2022/04/21 10:35:23;;;;;;;16.10;13.07;;;;;;;;;;5018701;28;20029;-72
2022/04/21 10:38:08;;;;;;;17.63;11.98;;;;;;;;;;5019058;28;20077;-72
2022/04/21 10:40:34;;;;;;;14.20;9.70;;;;;;;;;;5020426;28;20098;-73
2022/04/21 10:43:03;;;;;;;14.75;11.35;;;;;;;;;;5027883;28;20026;-72
2022/04/21 10:45:32;;;;;;;14.35;11.85;;;;;;;;;;5027245;28;20073;-73
2022/04/21 10:48:14;;;;;;;13.55;11.25;;;;;;;;;;5028840;28;20060;-73
2022/04/21 10:50:42;;;;;;;15.68;10.68;;;;;;;;;;5030693;28;20018;-73
2022/04/21 10:58:47;;;;;;;15.27;10.80;;;;;;;;;;5017679;28;20049;-72
2022/04/21 11:01:28;;;;;;;17.00;11.40;;;;;;;;;;5018085;28;20551;-70
2022/04/21 11:04:13;;;;;;;16.75;12.13;;;;;;;;;;5017182;28;20022;-72
2022/04/21 11:06:39;;;;;;;14.70;11.27;;;;;;;;;;5018731;28;20101;-71
2022/04/21 11:09:06;;;;;;;15.00;10.65;;;;;;;;;;5018020;28;20262;-72
2022/04/21 11:11:45;;;;;;;12.82;8.73;;;;;;;;;;5019088;28;20032;-73
2022/04/21 11:14:12;;;;;;;14.38;10.88;;;;;;;;;;5019282;28;20037;-71
2022/04/21 11:16:41;;;;;;;23.05;16.33;;;;;;;;;;5017803;28;20040;-73
2022/04/21 11:19:25;;;;;;;10.27;7.60;;;;;;;;;;5017379;28;20026;-72
2022/04/21 11:21:54;;;;;;;9.60;8.05;;;;;;;;;;5019501;28;20041;-72
2022/04/21 11:24:20;;;;;;;9.35;8.05;;;;;;;;;;5017643;28;20045;-73
2022/04/21 11:26:53;;;;;;;13.40;9.30;;;;;;;;;;5019882;28;20037;-72
2022/04/21 11:29:19;;;;;;;12.23;9.45;;;;;;;;;;5021371;28;20049;-72
2022/04/21 11:31:45;;;;;;;13.18;10.48;;;;;;;;;;5020509;28;20026;-72
2022/04/21 11:34:11;;;;;;;16.92;12.68;;;;;;;;;;5018896;28;20124;-72
2022/04/21 11:36:40;;;;;;;17.08;12.65;;;;;;;;;;5019765;28;20040;-71
2022/04/21 11:39:07;;;;;;;17.17;12.45;;;;;;;;;;5016796;28;20030;-73
2022/04/21 11:41:33;;;;;;;16.42;12.50;;;;;;;;;;5017176;28;20049;-73
2022/04/21 11:44:00;;;;;;;13.57;11.88;;;;;;;;;;5018477;28;20018;-73
2022/04/21 11:46:26;;;;;;;15.32;11.98;;;;;;;;;;5018172;28;20622;-72
2022/04/21 11:48:58;;;;;;;13.98;11.95;;;;;;;;;;5017866;28;20137;-73
2022/04/21 11:51:27;;;;;;;17.23;12.52;;;;;;;;;;5018962;28;20046;-72
2022/04/21 11:53:53;;;;;;;23.88;15.25;;;;;;;;;;5018112;28;20087;-72
2022/04/21 11:56:21;;;;;;;25.75;16.05;;;;;;;;;;5019140;28;20041;-74
2022/04/21 11:58:50;;;;;;;13.82;10.70;;;;;;;;;;5015687;28;20022;-71
2022/04/21 12:06:49;;;;;;;13.20;11.05;;;;;;;;;;5018548;28;20053;-72
2022/04/21 12:09:16;;;;;;;16.55;10.52;;;;;;;;;;5018899;28;20084;-73
2022/04/21 12:11:43;;;;;;;15.35;10.25;;;;;;;;;;5019129;28;20022;-71
2022/04/21 12:14:09;;;;;;;16.05;9.23;;;;;;;;;;5018719;28;20034;-73
2022/04/21 12:16:45;;;;;;;16.80;11.43;;;;;;;;;;5019339;28;20033;-74
2022/04/21 12:19:19;;;;;;;21.30;12.90;;;;;;;;;;5017912;28;20026;-73
2022/04/21 12:21:56;;;;;;;13.15;9.15;;;;;;;;;;5019433;28;20037;-73
2022/04/21 12:24:27;;;;;;;11.60;8.80;;;;;;;;;;5018355;28;20030;-73
2022/04/21 12:26:54;;;;;;;14.35;10.50;;;;;;;;;;5017305;28;20022;-73
2022/04/21 12:29:21;;;;;;;13.27;9.65;;;;;;;;;;5016730;28;20050;-72
2022/04/21 12:31:47;;;;;;;13.30;9.52;;;;;;;;;;5018560;28;20395;-72
2022/04/21 12:34:19;;;;;;;12.93;9.30;;;;;;;;;;5018339;28;20061;-72
2022/04/21 12:36:52;;;;;;;16.67;10.27;;;;;;;;;;5017871;28;20076;-72
2022/04/21 12:39:19;;;;;;;15.98;11.38;;;;;;;;;;5016442;28;20051;-72
2022/04/21 12:41:45;;;;;;;20.02;11.93;;;;;;;;;;5019409;28;20034;-72
2022/04/21 12:44:12;;;;;;;14.38;10.77;;;;;;;;;;5018520;28;20044;-72
2022/04/21 12:46:39;;;;;;;12.40;9.40;;;;;;;;;;5018578;28;20018;-72
2022/04/21 12:49:05;;;;;;;13.40;9.70;;;;;;;;;;5018157;28;20057;-73
2022/04/21 12:51:31;;;;;;;12.70;8.55;;;;;;;;;;5018482;28;20026;-73
2022/04/21 12:53:57;;;;;;;10.30;8.18;;;;;;;;;;5018135;28;20084;-74
2022/04/21 12:56:34;;;;;;;10.75;7.95;;;;;;;;;;5020657;28;20065;-73
2022/04/21 12:59:00;;;;;;;11.32;7.38;;;;;;;;;;5020053;28;20019;-75
2022/04/21 13:01:26;;;;;;;9.77;7.25;;;;;;;;;;5020235;28;20028;-73
2022/04/21 13:03:52;;;;;;;8.15;6.03;;;;;;;;;;5018872;28;20080;-71
2022/04/21 13:06:28;;;;;;;7.32;6.10;;;;;;;;;;5019658;28;20050;-74
2022/04/21 13:08:55;;;;;;;7.80;5.97;;;;;;;;;;5019968;28;20451;-73
2022/04/21 13:11:21;;;;;;;8.85;6.00;;;;;;;;;;5020648;28;20025;-73
2022/04/21 13:13:47;;;;;;;8.65;6.28;;;;;;;;;;5024815;28;20021;-74
2022/04/21 13:16:13;;;;;;;9.60;6.85;;;;;;;;;;5025466;28;20124;-74
2022/04/21 13:18:39;;;;;;;11.73;7.22;;;;;;;;;;5024208;28;20049;-72
2022/04/21 13:23:49;;;;;;;11.38;7.72;;;;;;;;;;5026665;28;20044;-72
2022/04/21 13:26:15;;;;;;;16.80;9.20;;;;;;;;;;5026569;28;20026;-73
2022/04/21 13:28:41;;;;;;;13.98;9.07;;;;;;;;;;5024063;28;20147;-73
2022/04/21 13:33:52;;;;;;;11.93;8.88;;;;;;;;;;5026073;28;20045;-74
2022/04/21 13:36:18;;;;;;;13.70;9.02;;;;;;;;;;5023716;28;20030;-74
2022/04/21 13:38:44;;;;;;;13.25;9.60;;;;;;;;;;5025208;28;20049;-73
2022/04/21 13:41:11;;;;;;;12.82;9.48;;;;;;;;;;5025458;28;20037;-72
2022/04/21 13:43:37;;;;;;;14.90;9.73;;;;;;;;;;5025341;28;20037;-73
2022/04/21 13:46:03;;;;;;;16.48;10.82;;;;;;;;;;5025178;28;20033;-73
2022/04/21 13:48:29;;;;;;;14.32;10.15;;;;;;;;;;5021733;28;20030;-73
2022/04/21 13:50:55;;;;;;;15.88;10.93;;;;;;;;;;5025112;28;20026;-73
2022/04/21 13:53:21;;;;;;;17.48;11.40;;;;;;;;;;5025734;28;20026;-72
2022/04/21 13:55:47;;;;;;;15.02;10.63;;;;;;;;;;5024446;28;20026;-73
2022/04/21 13:58:14;;;;;;;13.80;9.95;;;;;;;;;;5023862;28;20056;-72
2022/04/21 14:00:44;;;;;;;15.98;10.57;;;;;;;;;;5023352;28;20324;-73
2022/04/21 14:03:10;;;;;;;14.27;10.07;;;;;;;;;;5025595;28;20037;-72
2022/04/21 14:05:37;;;;;;;13.95;9.60;;;;;;;;;;5025049;28;20539;-72
2022/04/21 14:08:04;;;;;;;15.10;10.63;;;;;;;;;;5022724;28;20040;-72
2022/04/21 14:10:30;;;;;;;15.43;10.00;;;;;;;;;;5025478;28;20037;-73
2022/04/21 14:12:56;;;;;;;15.48;10.75;;;;;;;;;;5024450;28;20033;-72
2022/04/21 14:15:22;;;;;;;15.32;10.13;;;;;;;;;;5023477;28;20037;-72
2022/04/21 14:17:49;;;;;;;13.55;10.00;;;;;;;;;;5020176;28;20030;-71
2022/04/21 14:20:15;;;;;;;13.35;9.75;;;;;;;;;;5019464;28;20033;-73
2022/04/21 14:22:41;;;;;;;15.25;9.65;;;;;;;;;;5020538;28;20026;-72
2022/04/21 14:25:07;;;;;;;17.23;9.63;;;;;;;;;;5020344;28;20030;-72
2022/04/21 14:27:33;;;;;;;14.40;10.45;;;;;;;;;;5019083;28;20025;-71
2022/04/21 14:30:00;;;;;;;15.73;10.35;;;;;;;;;;5018644;28;20034;-73
2022/04/21 14:32:26;;;;;;;14.38;9.85;;;;;;;;;;5025697;28;20092;-75
2022/04/21 14:34:52;;;;;;;15.40;10.13;;;;;;;;;;5040819;28;20498;-74
2022/04/21 14:45:33;;;;;;;13.98;9.38;;;;;;;;;;5039614;28;20542;-72
2022/04/21 14:47:58;;;;;;;17.13;10.23;;;;;;;;;;5019220;28;20496;-73
2022/04/21 14:50:24;;;;;;;14.70;9.50;;;;;;;;;;5018066;28;20034;-73
2022/04/21 14:52:51;;;;;;;16.00;10.32;;;;;;;;;;5018841;28;20142;-76
2022/04/21 14:55:17;;;;;;;14.90;10.45;;;;;;;;;;5017586;28;20026;-74
2022/04/21 14:57:43;;;;;;;14.85;10.20;;;;;;;;;;5017420;28;20038;-74
2022/04/21 15:00:09;;;;;;;13.93;9.75;;;;;;;;;;5017633;28;20088;-74
2022/04/21 15:02:35;;;;;;;16.75;10.48;;;;;;;;;;5017239;28;20028;-74
2022/04/21 15:05:01;;;;;;;15.98;10.10;;;;;;;;;;5017653;28;20026;-74
2022/04/21 15:07:27;;;;;;;14.75;9.70;;;;;;;;;;5017927;28;20495;-74
2022/04/21 15:09:53;;;;;;;19.50;11.43;;;;;;;;;;5028690;28;20021;-75
2022/04/21 15:12:19;;;;;;;15.88;10.38;;;;;;;;;;5039629;28;20037;-74
2022/04/21 15:14:45;;;;;;;21.35;10.93;;;;;;;;;;5039518;28;20047;-76
2022/04/21 15:17:11;;;;;;;17.48;10.73;;;;;;;;;;5036955;28;20037;-75
2022/04/21 15:19:37;;;;;;;17.33;10.93;;;;;;;;;;5052689;28;20033;-75
2022/04/21 15:22:03;;;;;;;17.10;10.48;;;;;;;;;;5037926;28;20026;-74
2022/04/21 15:24:32;;;;;;;14.98;10.02;;;;;;;;;;5038321;28;20026;-75